sensor_id;sensor_type;location;lat;lon;timestamp;pressure;altitude;pressure_sealevel;temperature;humidity
60715;BME280;46564;53.096;8.246;2023-04-08T00:04:09;102209.94;;;3.70;83.87
60715;BME280;46564;53.096;8.246;2023-04-08T00:09:13;102214.34;;;3.71;83.88
60715;BME280;46564;53.096;8.246;2023-04-08T00:14:14;102213.78;;;3.76;84.13
60715;BME280;46564;53.096;8.246;2023-04-08T00:19:16;102219.47;;;3.83;84.61
60715;BME280;46564;53.096;8.246;2023-04-08T00:24:18;102208.41;;;3.86;84.86
60715;BME280;46564;53.096;8.246;2023-04-08T00:29:20;102215.78;;;3.93;84.69
60715;BME280;46564;53.096;8.246;2023-04-08T00:34:22;102215.19;;;3.97;85.12
60715;BME280;46564;53.096;8.246;2023-04-08T00:39:23;102221.00;;;4.06;85.42
60715;BME280;46564;53.096;8.246;2023-04-08T00:44:25;102216.31;;;4.14;85.10
60715;BME280;46564;53.096;8.246;2023-04-08T00:49:26;102219.25;;;4.19;85.22
60715;BME280;46564;53.096;8.246;2023-04-08T00:54:29;102222.81;;;4.21;85.22
60715;BME280;46564;53.096;8.246;2023-04-08T00:59:32;102224.63;;;4.22;85.39
60715;BME280;46564;53.096;8.246;2023-04-08T01:04:44;102231.78;;;4.26;85.39
60715;BME280;46564;53.096;8.246;2023-04-08T01:09:54;102220.44;;;4.37;85.61
60715;BME280;46564;53.096;8.246;2023-04-08T01:15:02;102219.13;;;4.44;85.71
60715;BME280;46564;53.096;8.246;2023-04-08T01:20:07;102217.25;;;4.55;85.80
60715;BME280;46564;53.096;8.246;2023-04-08T01:25:18;102222.09;;;4.64;85.68
60715;BME280;46564;53.096;8.246;2023-04-08T01:30:21;102219.78;;;4.68;85.58
60715;BME280;46564;53.096;8.246;2023-04-08T01:35:24;102227.78;;;4.71;85.72
60715;BME280;46564;53.096;8.246;2023-04-08T01:40:26;102225.50;;;4.76;85.68
60715;BME280;46564;53.096;8.246;2023-04-08T01:45:29;102230.69;;;4.76;85.96
60715;BME280;46564;53.096;8.246;2023-04-08T01:50:31;102224.00;;;4.80;85.76
60715;BME280;46564;53.096;8.246;2023-04-08T01:55:34;102237.84;;;4.80;86.05
60715;BME280;46564;53.096;8.246;2023-04-08T02:00:38;102227.47;;;4.80;86.14
60715;BME280;46564;53.096;8.246;2023-04-08T02:05:41;102230.06;;;4.80;85.93
60715;BME280;46564;53.096;8.246;2023-04-08T02:10:43;102237.06;;;4.81;85.97
60715;BME280;46564;53.096;8.246;2023-04-08T02:15:54;102242.34;;;4.83;86.09
60715;BME280;46564;53.096;8.246;2023-04-08T02:21:10;102237.94;;;4.82;85.99
60715;BME280;46564;53.096;8.246;2023-04-08T02:26:14;102247.34;;;4.80;86.33
60715;BME280;46564;53.096;8.246;2023-04-08T02:31:18;102241.28;;;4.79;86.31
60715;BME280;46564;53.096;8.246;2023-04-08T02:36:21;102238.16;;;4.85;86.28
60715;BME280;46564;53.096;8.246;2023-04-08T02:41:27;102240.94;;;4.88;86.10
60715;BME280;46564;53.096;8.246;2023-04-08T02:46:29;102244.53;;;4.90;86.08
60715;BME280;46564;53.096;8.246;2023-04-08T02:51:30;102240.53;;;4.95;86.10
60715;BME280;46564;53.096;8.246;2023-04-08T02:56:33;102242.94;;;4.92;85.92
60715;BME280;46564;53.096;8.246;2023-04-08T03:01:34;102254.13;;;4.91;85.92
60715;BME280;46564;53.096;8.246;2023-04-08T03:06:36;102246.63;;;4.95;85.81
60715;BME280;46564;53.096;8.246;2023-04-08T03:11:38;102248.31;;;4.95;85.85
60715;BME280;46564;53.096;8.246;2023-04-08T03:16:39;102250.31;;;4.99;85.77
60715;BME280;46564;53.096;8.246;2023-04-08T03:21:41;102260.59;;;4.98;85.56
60715;BME280;46564;53.096;8.246;2023-04-08T03:26:43;102260.88;;;5.02;85.54
60715;BME280;46564;53.096;8.246;2023-04-08T03:31:44;102252.50;;;5.06;85.36
60715;BME280;46564;53.096;8.246;2023-04-08T03:36:46;102253.38;;;5.07;85.31
60715;BME280;46564;53.096;8.246;2023-04-08T03:41:48;102255.88;;;5.05;85.23
60715;BME280;46564;53.096;8.246;2023-04-08T03:46:49;102256.09;;;5.08;85.27
60715;BME280;46564;53.096;8.246;2023-04-08T03:51:51;102249.09;;;5.07;85.34
60715;BME280;46564;53.096;8.246;2023-04-08T03:56:52;102248.19;;;5.07;85.23
60715;BME280;46564;53.096;8.246;2023-04-08T04:01:54;102266.19;;;5.04;85.20
60715;BME280;46564;53.096;8.246;2023-04-08T04:06:56;102253.78;;;5.00;85.21
60715;BME280;46564;53.096;8.246;2023-04-08T04:11:58;102263.50;;;5.02;85.30
60715;BME280;46564;53.096;8.246;2023-04-08T04:16:59;102260.88;;;5.02;85.39
60715;BME280;46564;53.096;8.246;2023-04-08T04:22:01;102269.47;;;5.01;85.45
60715;BME280;46564;53.096;8.246;2023-04-08T04:27:02;102264.00;;;4.96;85.47
60715;BME280;46564;53.096;8.246;2023-04-08T04:32:04;102271.28;;;5.02;85.63
60715;BME280;46564;53.096;8.246;2023-04-08T04:37:06;102268.47;;;4.99;85.76
60715;BME280;46564;53.096;8.246;2023-04-08T04:42:08;102275.47;;;5.00;85.73
60715;BME280;46564;53.096;8.246;2023-04-08T04:47:09;102268.28;;;4.96;85.94
60715;BME280;46564;53.096;8.246;2023-04-08T04:52:11;102278.88;;;4.99;86.25
60715;BME280;46564;53.096;8.246;2023-04-08T04:57:13;102282.97;;;4.95;86.29
60715;BME280;46564;53.096;8.246;2023-04-08T05:02:14;102281.06;;;4.93;86.52
60715;BME280;46564;53.096;8.246;2023-04-08T05:07:16;102278.88;;;4.99;86.50
60715;BME280;46564;53.096;8.246;2023-04-08T05:12:17;102289.94;;;4.96;86.77
60715;BME280;46564;53.096;8.246;2023-04-08T05:17:20;102289.66;;;4.92;86.66
60715;BME280;46564;53.096;8.246;2023-04-08T05:22:22;102298.47;;;4.94;87.02
60715;BME280;46564;53.096;8.246;2023-04-08T05:27:24;102303.94;;;4.99;87.01
60715;BME280;46564;53.096;8.246;2023-04-08T05:32:26;102301.34;;;4.99;87.30
60715;BME280;46564;53.096;8.246;2023-04-08T05:37:27;102311.84;;;5.00;87.53
60715;BME280;46564;53.096;8.246;2023-04-08T05:42:29;102316.41;;;5.04;87.52
60715;BME280;46564;53.096;8.246;2023-04-08T05:47:32;102325.59;;;5.12;87.63
60715;BME280;46564;53.096;8.246;2023-04-08T05:52:33;102317.00;;;5.13;87.72
60715;BME280;46564;53.096;8.246;2023-04-08T05:57:35;102333.16;;;5.23;87.77
60715;BME280;46564;53.096;8.246;2023-04-08T06:02:37;102324.97;;;5.30;87.73
60715;BME280;46564;53.096;8.246;2023-04-08T06:07:39;102324.34;;;5.34;87.74
60715;BME280;46564;53.096;8.246;2023-04-08T06:13:31;102326.13;;;5.48;87.91
60715;BME280;46564;53.096;8.246;2023-04-08T06:19:21;102335.28;;;5.57;87.60
60715;BME280;46564;53.096;8.246;2023-04-08T06:25:12;102346.03;;;5.63;87.35
60715;BME280;46564;53.096;8.246;2023-04-08T06:30:42;102341.25;;;5.69;87.30
60715;BME280;46564;53.096;8.246;2023-04-08T06:35:44;102343.03;;;5.70;87.10
60715;BME280;46564;53.096;8.246;2023-04-08T06:40:46;102353.19;;;5.80;87.01
60715;BME280;46564;53.096;8.246;2023-04-08T06:45:48;102355.50;;;5.76;86.92
60715;BME280;46564;53.096;8.246;2023-04-08T06:50:50;102367.63;;;5.75;86.89
60715;BME280;46564;53.096;8.246;2023-04-08T06:55:52;102375.00;;;5.82;87.02
60715;BME280;46564;53.096;8.246;2023-04-08T07:00:53;102386.41;;;5.71;86.93
60715;BME280;46564;53.096;8.246;2023-04-08T07:05:56;102383.88;;;5.86;87.15
60715;BME280;46564;53.096;8.246;2023-04-08T07:10:58;102381.97;;;5.97;87.13
60715;BME280;46564;53.096;8.246;2023-04-08T07:15:59;102396.06;;;6.00;87.24
60715;BME280;46564;53.096;8.246;2023-04-08T07:21:01;102388.16;;;5.99;87.21
60715;BME280;46564;53.096;8.246;2023-04-08T07:26:03;102376.72;;;6.10;87.30
60715;BME280;46564;53.096;8.246;2023-04-08T07:31:16;102382.53;;;6.06;87.13
60715;BME280;46564;53.096;8.246;2023-04-08T07:36:18;102391.97;;;6.19;86.95
60715;BME280;46564;53.096;8.246;2023-04-08T07:41:19;102391.94;;;6.04;86.94
60715;BME280;46564;53.096;8.246;2023-04-08T07:46:21;102404.06;;;6.04;86.83
60715;BME280;46564;53.096;8.246;2023-04-08T07:51:23;102407.66;;;6.06;86.89
60715;BME280;46564;53.096;8.246;2023-04-08T07:56:24;102413.34;;;6.00;86.95
60715;BME280;46564;53.096;8.246;2023-04-08T08:01:26;102407.56;;;6.04;86.95
60715;BME280;46564;53.096;8.246;2023-04-08T08:06:31;102399.84;;;6.06;86.94
60715;BME280;46564;53.096;8.246;2023-04-08T08:11:33;102404.16;;;6.05;87.00
60715;BME280;46564;53.096;8.246;2023-04-08T08:16:34;102412.59;;;6.16;86.95
60715;BME280;46564;53.096;8.246;2023-04-08T08:21:36;102402.97;;;6.00;87.01
60715;BME280;46564;53.096;8.246;2023-04-08T08:26:38;102412.34;;;6.11;87.03
60715;BME280;46564;53.096;8.246;2023-04-08T08:31:40;102420.19;;;6.26;87.04
60715;BME280;46564;53.096;8.246;2023-04-08T08:36:42;102424.22;;;6.36;86.72
60715;BME280;46564;53.096;8.246;2023-04-08T08:41:44;102422.34;;;6.48;86.53
60715;BME280;46564;53.096;8.246;2023-04-08T08:46:46;102424.25;;;6.66;85.91
60715;BME280;46564;53.096;8.246;2023-04-08T08:51:49;102433.53;;;6.76;85.84
60715;BME280;46564;53.096;8.246;2023-04-08T08:56:51;102448.41;;;6.78;85.66
60715;BME280;46564;53.096;8.246;2023-04-08T09:01:53;102445.72;;;6.77;85.32
60715;BME280;46564;53.096;8.246;2023-04-08T09:07:09;102454.25;;;6.89;85.18
60715;BME280;46564;53.096;8.246;2023-04-08T09:12:11;102457.94;;;6.93;84.83
60715;BME280;46564;53.096;8.246;2023-04-08T09:17:14;102462.06;;;6.89;84.81
60715;BME280;46564;53.096;8.246;2023-04-08T09:22:16;102468.81;;;7.00;84.38
60715;BME280;46564;53.096;8.246;2023-04-08T09:27:33;102472.22;;;7.14;84.29
60715;BME280;46564;53.096;8.246;2023-04-08T09:32:52;102463.16;;;7.22;83.87
60715;BME280;46564;53.096;8.246;2023-04-08T09:37:53;102465.66;;;7.36;83.48
60715;BME280;46564;53.096;8.246;2023-04-08T09:42:56;102465.53;;;7.49;82.96
60715;BME280;46564;53.096;8.246;2023-04-08T09:48:09;102473.06;;;7.76;82.72
60715;BME280;46564;53.096;8.246;2023-04-08T09:53:19;102474.66;;;7.89;82.10
60715;BME280;46564;53.096;8.246;2023-04-08T09:58:38;102466.53;;;7.99;81.68
60715;BME280;46564;53.096;8.246;2023-04-08T10:03:45;102455.88;;;8.11;81.18
60715;BME280;46564;53.096;8.246;2023-04-08T10:08:49;102456.59;;;8.08;81.02
60715;BME280;46564;53.096;8.246;2023-04-08T10:13:51;102466.25;;;8.26;80.88
60715;BME280;46564;53.096;8.246;2023-04-08T10:18:53;102464.19;;;8.37;80.44
60715;BME280;46564;53.096;8.246;2023-04-08T10:23:58;102464.28;;;8.55;80.32
60715;BME280;46564;53.096;8.246;2023-04-08T10:34:19;102470.63;;;8.76;79.48
60715;BME280;46564;53.096;8.246;2023-04-08T10:39:21;102475.44;;;8.69;79.02
60715;BME280;46564;53.096;8.246;2023-04-08T10:44:24;102475.41;;;8.85;78.95
60715;BME280;46564;53.096;8.246;2023-04-08T10:49:32;102471.13;;;8.69;78.46
60715;BME280;46564;53.096;8.246;2023-04-08T10:54:35;102466.97;;;8.73;78.38
60715;BME280;46564;53.096;8.246;2023-04-08T10:59:39;102480.47;;;8.98;78.46
60715;BME280;46564;53.096;8.246;2023-04-08T11:04:41;102479.81;;;9.02;78.20
60715;BME280;46564;53.096;8.246;2023-04-08T11:09:43;102486.34;;;8.94;78.04
60715;BME280;46564;53.096;8.246;2023-04-08T11:14:45;102488.94;;;8.94;78.17
60715;BME280;46564;53.096;8.246;2023-04-08T11:19:48;102480.38;;;8.97;78.03
60715;BME280;46564;53.096;8.246;2023-04-08T11:24:50;102483.72;;;8.94;77.91
60715;BME280;46564;53.096;8.246;2023-04-08T11:29:55;102481.81;;;9.08;78.18
60715;BME280;46564;53.096;8.246;2023-04-08T11:35:00;102488.91;;;9.11;78.11
60715;BME280;46564;53.096;8.246;2023-04-08T11:40:08;102488.91;;;9.11;78.11
60715;BME280;46564;53.096;8.246;2023-04-08T11:45:12;102482.22;;;9.16;77.45
60715;BME280;46564;53.096;8.246;2023-04-08T11:50:23;102475.34;;;9.36;77.45
60715;BME280;46564;53.096;8.246;2023-04-08T11:55:30;102482.09;;;9.49;77.14
60715;BME280;46564;53.096;8.246;2023-04-08T12:00:32;102481.31;;;9.33;77.29
60715;BME280;46564;53.096;8.246;2023-04-08T12:05:34;102477.06;;;9.35;76.94
60715;BME280;46564;53.096;8.246;2023-04-08T12:10:36;102478.78;;;9.35;77.22
60715;BME280;46564;53.096;8.246;2023-04-08T12:15:38;102480.06;;;9.61;77.00
60715;BME280;46564;53.096;8.246;2023-04-08T12:20:39;102477.34;;;9.78;76.63
60715;BME280;46564;53.096;8.246;2023-04-08T12:25:41;102477.34;;;9.78;76.63
60715;BME280;46564;53.096;8.246;2023-04-08T12:30:43;57128.34;;;-147.53;100.00
60715;BME280;46564;53.096;8.246;2023-04-08T12:35:45;57128.34;;;-147.53;100.00
60715;BME280;46564;53.096;8.246;2023-04-08T12:40:46;57128.34;;;-147.53;100.00
60715;BME280;46564;53.096;8.246;2023-04-08T12:45:50;57128.34;;;-147.53;100.00
60715;BME280;46564;53.096;8.246;2023-04-08T12:50:52;57128.34;;;-147.53;100.00
60715;BME280;46564;53.096;8.246;2023-04-08T12:55:53;57128.34;;;-147.53;100.00
60715;BME280;46564;53.096;8.246;2023-04-08T13:00:58;57128.34;;;-147.53;100.00
60715;BME280;46564;53.096;8.246;2023-04-08T13:05:59;57128.34;;;-147.53;100.00
60715;BME280;46564;53.096;8.246;2023-04-08T13:11:01;57128.34;;;-147.53;100.00
60715;BME280;46564;53.096;8.246;2023-04-08T13:16:02;57128.34;;;-147.53;100.00
60715;BME280;46564;53.096;8.246;2023-04-08T13:21:04;57128.34;;;-147.53;100.00
60715;BME280;46564;53.096;8.246;2023-04-08T13:26:05;57128.34;;;-147.53;100.00
60715;BME280;46564;53.096;8.246;2023-04-08T13:31:07;57128.34;;;-147.53;100.00
60715;BME280;46564;53.096;8.246;2023-04-08T13:36:10;57128.34;;;-147.53;100.00
60715;BME280;46564;53.096;8.246;2023-04-08T13:41:11;57128.34;;;-147.53;100.00
60715;BME280;46564;53.096;8.246;2023-04-08T13:46:13;57128.34;;;-147.53;100.00
60715;BME280;46564;53.096;8.246;2023-04-08T13:51:15;57128.34;;;-147.53;100.00
60715;BME280;46564;53.096;8.246;2023-04-08T13:56:16;57128.34;;;-147.53;100.00
60715;BME280;46564;53.096;8.246;2023-04-08T14:01:18;57128.34;;;-147.53;100.00
60715;BME280;46564;53.096;8.246;2023-04-08T14:06:19;57128.34;;;-147.53;100.00
60715;BME280;46564;53.096;8.246;2023-04-08T14:11:21;57128.34;;;-147.53;100.00
60715;BME280;46564;53.096;8.246;2023-04-08T14:16:23;57128.34;;;-147.53;100.00
60715;BME280;46564;53.096;8.246;2023-04-08T14:21:25;57128.34;;;-147.53;100.00
60715;BME280;46564;53.096;8.246;2023-04-08T14:26:27;57128.34;;;-147.53;100.00
60715;BME280;46564;53.096;8.246;2023-04-08T14:31:28;57128.34;;;-147.53;100.00
60715;BME280;46564;53.096;8.246;2023-04-08T14:36:30;57128.34;;;-147.53;100.00
60715;BME280;46564;53.096;8.246;2023-04-08T14:41:31;57128.34;;;-147.53;100.00
60715;BME280;46564;53.096;8.246;2023-04-08T14:46:33;57128.34;;;-147.53;100.00
60715;BME280;46564;53.096;8.246;2023-04-08T14:51:35;57128.34;;;-147.53;100.00
60715;BME280;46564;53.096;8.246;2023-04-08T14:56:38;57128.34;;;-147.53;100.00
60715;BME280;46564;53.096;8.246;2023-04-08T15:01:39;57128.34;;;-147.53;100.00
60715;BME280;46564;53.096;8.246;2023-04-08T15:06:41;57128.34;;;-147.53;100.00
60715;BME280;46564;53.096;8.246;2023-04-08T15:11:44;57128.34;;;-147.53;100.00
60715;BME280;46564;53.096;8.246;2023-04-08T15:16:46;57128.34;;;-147.53;100.00
60715;BME280;46564;53.096;8.246;2023-04-08T15:21:47;57128.34;;;-147.53;100.00
60715;BME280;46564;53.096;8.246;2023-04-08T15:26:49;57128.34;;;-147.53;100.00
60715;BME280;46564;53.096;8.246;2023-04-08T15:31:50;57128.34;;;-147.53;100.00
60715;BME280;46564;53.096;8.246;2023-04-08T15:36:53;57128.34;;;-147.53;100.00
60715;BME280;46564;53.096;8.246;2023-04-08T15:41:57;57128.34;;;-147.53;100.00
60715;BME280;46564;53.096;8.246;2023-04-08T15:46:59;57128.34;;;-147.53;100.00
60715;BME280;46564;53.096;8.246;2023-04-08T15:52:00;57128.34;;;-147.53;100.00
60715;BME280;46564;53.096;8.246;2023-04-08T15:57:02;57128.34;;;-147.53;100.00
60715;BME280;46564;53.096;8.246;2023-04-08T16:02:04;57128.34;;;-147.53;100.00
60715;BME280;46564;53.096;8.246;2023-04-08T16:07:05;57128.34;;;-147.53;100.00
60715;BME280;46564;53.096;8.246;2023-04-08T16:12:07;57128.34;;;-147.53;100.00
60715;BME280;46564;53.096;8.246;2023-04-08T16:17:09;57128.34;;;-147.53;100.00
60715;BME280;46564;53.096;8.246;2023-04-08T16:22:11;57128.34;;;-147.53;100.00
60715;BME280;46564;53.096;8.246;2023-04-08T16:27:13;57128.34;;;-147.53;100.00
60715;BME280;46564;53.096;8.246;2023-04-08T16:32:14;57128.34;;;-147.53;100.00
60715;BME280;46564;53.096;8.246;2023-04-08T16:37:16;57128.34;;;-147.53;100.00
60715;BME280;46564;53.096;8.246;2023-04-08T16:42:17;57128.34;;;-147.53;100.00
60715;BME280;46564;53.096;8.246;2023-04-08T16:47:19;57128.34;;;-147.53;100.00
60715;BME280;46564;53.096;8.246;2023-04-08T16:52:21;57128.34;;;-147.53;100.00
60715;BME280;46564;53.096;8.246;2023-04-08T16:57:22;57128.34;;;-147.53;100.00
60715;BME280;46564;53.096;8.246;2023-04-08T17:02:24;102472.56;;;9.15;77.62
60715;BME280;46564;53.096;8.246;2023-04-08T17:07:26;102476.97;;;9.16;77.96
60715;BME280;46564;53.096;8.246;2023-04-08T17:12:28;102482.38;;;9.19;78.32
60715;BME280;46564;53.096;8.246;2023-04-08T17:17:30;102482.78;;;9.10;77.98
60715;BME280;46564;53.096;8.246;2023-04-08T17:22:31;102488.59;;;9.05;78.22
60715;BME280;46564;53.096;8.246;2023-04-08T17:27:33;102492.94;;;9.04;78.30
60715;BME280;46564;53.096;8.246;2023-04-08T17:32:34;102495.03;;;8.93;78.54
60715;BME280;46564;53.096;8.246;2023-04-08T17:37:36;102500.75;;;8.86;79.06
60715;BME280;46564;53.096;8.246;2023-04-08T17:42:38;102504.25;;;8.87;78.90
60715;BME280;46564;53.096;8.246;2023-04-08T17:47:41;102498.38;;;8.74;79.14
60715;BME280;46564;53.096;8.246;2023-04-08T17:52:43;102504.34;;;8.72;79.52
60715;BME280;46564;53.096;8.246;2023-04-08T17:57:46;102508.28;;;8.63;79.53
60715;BME280;46564;53.096;8.246;2023-04-08T18:02:50;102503.06;;;8.63;79.59
60715;BME280;46564;53.096;8.246;2023-04-08T18:07:52;102506.56;;;8.47;80.10
60715;BME280;46564;53.096;8.246;2023-04-08T18:12:53;102510.81;;;8.45;80.26
60715;BME280;46564;53.096;8.246;2023-04-08T18:18:11;102508.28;;;8.47;80.46
60715;BME280;46564;53.096;8.246;2023-04-08T18:23:18;102519.25;;;8.41;80.53
60715;BME280;46564;53.096;8.246;2023-04-08T18:28:19;102517.28;;;8.37;80.86
60715;BME280;46564;53.096;8.246;2023-04-08T18:33:22;102533.88;;;8.38;81.08
60715;BME280;46564;53.096;8.246;2023-04-08T18:38:24;102541.69;;;8.38;81.31
60715;BME280;46564;53.096;8.246;2023-04-08T18:43:26;102541.03;;;8.42;81.37
60715;BME280;46564;53.096;8.246;2023-04-08T18:48:28;102547.16;;;8.42;81.34
60715;BME280;46564;53.096;8.246;2023-04-08T18:53:30;102559.97;;;8.38;81.50
60715;BME280;46564;53.096;8.246;2023-04-08T18:58:32;102558.16;;;8.37;81.56
60715;BME280;46564;53.096;8.246;2023-04-08T19:03:34;102576.03;;;8.29;81.62
60715;BME280;46564;53.096;8.246;2023-04-08T19:08:36;102573.16;;;8.24;81.78
60715;BME280;46564;53.096;8.246;2023-04-08T19:13:38;102581.97;;;8.26;81.77
60715;BME280;46564;53.096;8.246;2023-04-08T19:18:40;102576.75;;;8.26;81.77
60715;BME280;46564;53.096;8.246;2023-04-08T19:23:41;102581.97;;;8.26;81.77
60715;BME280;46564;53.096;8.246;2023-04-08T19:28:43;102570.47;;;8.23;81.96
60715;BME280;46564;53.096;8.246;2023-04-08T19:33:44;102577.03;;;8.16;82.31
60715;BME280;46564;53.096;8.246;2023-04-08T19:38:46;102583.22;;;8.02;82.13
60715;BME280;46564;53.096;8.246;2023-04-08T19:43:48;102580.31;;;7.97;82.57
60715;BME280;46564;53.096;8.246;2023-04-08T19:48:49;102578.28;;;7.91;82.48
60715;BME280;46564;53.096;8.246;2023-04-08T19:53:51;102588.72;;;7.91;82.76
60715;BME280;46564;53.096;8.246;2023-04-08T19:58:53;102586.28;;;7.94;82.69
60715;BME280;46564;53.096;8.246;2023-04-08T20:03:55;102575.94;;;7.96;82.78
60715;BME280;46564;53.096;8.246;2023-04-08T20:08:57;102580.41;;;7.99;82.98
60715;BME280;46564;53.096;8.246;2023-04-08T20:14:05;102587.63;;;7.88;83.08
60715;BME280;46564;53.096;8.246;2023-04-08T20:19:07;102587.19;;;7.80;83.12
60715;BME280;46564;53.096;8.246;2023-04-08T20:24:08;102586.41;;;7.81;83.21
60715;BME280;46564;53.096;8.246;2023-04-08T20:29:10;102587.03;;;7.77;83.45
60715;BME280;46564;53.096;8.246;2023-04-08T20:34:11;102590.34;;;7.74;83.61
60715;BME280;46564;53.096;8.246;2023-04-08T20:39:13;102587.03;;;7.77;83.84
60715;BME280;46564;53.096;8.246;2023-04-08T20:44:14;102593.03;;;7.76;83.92
60715;BME280;46564;53.096;8.246;2023-04-08T20:49:17;102592.94;;;7.74;83.85
60715;BME280;46564;53.096;8.246;2023-04-08T20:54:19;102594.84;;;7.77;83.97
60715;BME280;46564;53.096;8.246;2023-04-08T20:59:20;102589.88;;;7.82;83.96
60715;BME280;46564;53.096;8.246;2023-04-08T21:04:22;102588.81;;;7.78;84.02
60715;BME280;46564;53.096;8.246;2023-04-08T21:09:24;102589.63;;;7.77;83.97
60715;BME280;46564;53.096;8.246;2023-04-08T21:14:26;102587.47;;;7.85;83.96
60715;BME280;46564;53.096;8.246;2023-04-08T21:19:27;102587.63;;;7.88;83.94
60715;BME280;46564;53.096;8.246;2023-04-08T21:24:29;102589.97;;;7.83;83.45
60715;BME280;46564;53.096;8.246;2023-04-08T21:29:31;102590.06;;;7.85;83.79
60715;BME280;46564;53.096;8.246;2023-04-08T21:34:33;102591.88;;;7.86;83.65
60715;BME280;46564;53.096;8.246;2023-04-08T21:39:34;102589.00;;;7.81;83.95
60715;BME280;46564;53.096;8.246;2023-04-08T21:44:36;102593.13;;;7.77;83.84
60715;BME280;46564;53.096;8.246;2023-04-08T21:49:37;102588.75;;;7.76;83.96
60715;BME280;46564;53.096;8.246;2023-04-08T21:54:39;102584.25;;;7.74;84.08
60715;BME280;46564;53.096;8.246;2023-04-08T21:59:40;102584.25;;;7.74;84.22
60715;BME280;46564;53.096;8.246;2023-04-08T22:04:42;102596.13;;;7.69;84.05
60715;BME280;46564;53.096;8.246;2023-04-08T22:09:45;102597.09;;;7.71;84.29
60715;BME280;46564;53.096;8.246;2023-04-08T22:14:46;102588.94;;;7.65;84.37
60715;BME280;46564;53.096;8.246;2023-04-08T22:19:48;102593.03;;;7.61;84.59
60715;BME280;46564;53.096;8.246;2023-04-08T22:24:49;102589.72;;;7.64;84.41
60715;BME280;46564;53.096;8.246;2023-04-08T22:29:51;102582.72;;;7.63;84.60
60715;BME280;46564;53.096;8.246;2023-04-08T22:34:52;102584.25;;;7.59;84.67
60715;BME280;46564;53.096;8.246;2023-04-08T22:39:54;102580.59;;;7.55;84.77
60715;BME280;46564;53.096;8.246;2023-04-08T22:44:55;102589.38;;;7.57;84.79
60715;BME280;46564;53.096;8.246;2023-04-08T22:49:57;102583.97;;;7.54;84.81
60715;BME280;46564;53.096;8.246;2023-04-08T22:54:58;102580.59;;;7.55;84.73
60715;BME280;46564;53.096;8.246;2023-04-08T23:00:00;102579.56;;;7.53;84.88
60715;BME280;46564;53.096;8.246;2023-04-08T23:05:04;102570.59;;;7.48;85.13
60715;BME280;46564;53.096;8.246;2023-04-08T23:10:07;102568.69;;;7.46;85.33
60715;BME280;46564;53.096;8.246;2023-04-08T23:15:08;102560.72;;;7.42;85.31
60715;BME280;46564;53.096;8.246;2023-04-08T23:20:10;102561.31;;;7.38;85.49
60715;BME280;46564;53.096;8.246;2023-04-08T23:25:12;102571.75;;;7.38;85.65
60715;BME280;46564;53.096;8.246;2023-04-08T23:30:13;102570.06;;;7.39;85.78
60715;BME280;46564;53.096;8.246;2023-04-08T23:35:15;102563.22;;;7.41;85.76
60715;BME280;46564;53.096;8.246;2023-04-08T23:40:17;102569.22;;;7.40;85.80
60715;BME280;46564;53.096;8.246;2023-04-08T23:45:19;102570.16;;;7.40;85.89
60715;BME280;46564;53.096;8.246;2023-04-08T23:50:20;102572.66;;;7.39;85.88
60715;BME280;46564;53.096;8.246;2023-04-08T23:55:23;102574.44;;;7.40;85.96
